createdAt,value
2022-08-10T00:01:52.893Z,102119.16
2022-08-10T00:04:24.307Z,102123.78
2022-08-10T00:06:55.414Z,102097.59
2022-08-10T00:09:23.652Z,102120.00
2022-08-10T00:11:50.915Z,102112.38
2022-08-10T00:14:18.353Z,102078.72
2022-08-10T00:16:45.343Z,102108.56
2022-08-10T00:19:12.179Z,102099.75
2022-08-10T00:21:39.224Z,102065.84
2022-08-10T00:24:06.177Z,102113.19
2022-08-10T00:27:52.278Z,102107.25
2022-08-10T00:29:21.059Z,102110.22
2022-08-10T00:31:58.037Z,102095.47
2022-08-10T00:34:25.650Z,102094.84
2022-08-10T00:36:52.340Z,102052.00
2022-08-10T00:39:19.042Z,102095.75
2022-08-10T00:41:45.926Z,102089.16
2022-08-10T00:44:32.633Z,102091.81
2022-08-10T00:47:00.967Z,102078.06
2022-08-10T00:49:28.750Z,102084.81
2022-08-10T00:51:56.084Z,102075.78
2022-08-10T00:54:24.120Z,102081.06
2022-08-10T00:57:17.110Z,102083.97
2022-08-10T00:59:58.504Z,102087.56
2022-08-10T01:02:25.572Z,102093.88
2022-08-10T01:04:59.981Z,102060.19
2022-08-10T01:08:05.138Z,102094.66
2022-08-10T01:10:52.757Z,102069.78
2022-08-10T01:13:33.632Z,102068.47
2022-08-10T01:16:25.831Z,102061.94
2022-08-10T01:19:03.795Z,102062.34
2022-08-10T01:22:01.641Z,102058.56
2022-08-10T01:25:03.607Z,102073.69
2022-08-10T01:27:45.849Z,102048.50
2022-08-10T01:30:14.787Z,102052.41
2022-08-10T01:33:10.789Z,102076.56
2022-08-10T01:35:47.042Z,102049.06
2022-08-10T01:38:19.237Z,102062.88
2022-08-10T01:40:52.163Z,102045.63
2022-08-10T01:43:20.448Z,102061.69
2022-08-10T01:45:53.708Z,102044.59
2022-08-10T01:48:30.874Z,102061.25
2022-08-10T01:51:21.872Z,102053.38
2022-08-10T01:53:57.683Z,102047.09
2022-08-10T01:56:26.662Z,102049.66
2022-08-10T01:58:58.507Z,102061.91
2022-08-10T02:01:29.650Z,102044.84
2022-08-10T02:04:05.203Z,102049.50
2022-08-10T02:06:45.579Z,102064.56
2022-08-10T02:09:17.522Z,102047.94
2022-08-10T02:12:05.133Z,102042.63
2022-08-10T02:14:34.939Z,102043.06
2022-08-10T02:17:05.607Z,102037.13
2022-08-10T02:19:35.708Z,102043.19
2022-08-10T02:22:36.972Z,102039.13
2022-08-10T02:24:52.499Z,101995.66
2022-08-10T02:27:22.755Z,102030.81
2022-08-10T02:29:51.910Z,102038.19
2022-08-10T02:32:36.251Z,102029.69
2022-08-10T02:35:17.786Z,102035.53
2022-08-10T02:37:51.475Z,102030.09
2022-08-10T02:45:11.044Z,102021.09
2022-08-10T02:45:22.576Z,102040.75
2022-08-10T02:46:08.526Z,102043.97
2022-08-10T02:48:44.628Z,102044.72
2022-08-10T02:52:06.523Z,102044.16
2022-08-10T02:54:37.202Z,102030.19
2022-08-10T02:57:13.818Z,102038.75
2022-08-10T02:59:45.769Z,102039.06
2022-08-10T03:02:16.559Z,102045.28
2022-08-10T03:04:55.830Z,102051.59
2022-08-10T03:07:44.341Z,102050.22
2022-08-10T03:10:17.519Z,102049.91
2022-08-10T03:12:49.539Z,102061.28
2022-08-10T03:15:19.075Z,102065.81
2022-08-10T03:17:57.665Z,102062.50
2022-08-10T03:20:36.464Z,102055.53
2022-08-10T03:23:11.490Z,102052.09
2022-08-10T03:25:39.253Z,102027.53
2022-08-10T03:28:07.160Z,102041.31
2022-08-10T03:30:35.192Z,102047.59
2022-08-10T03:33:07.713Z,102045.16
2022-08-10T03:35:34.979Z,102047.50
2022-08-10T03:38:02.331Z,102041.06
2022-08-10T03:40:45.132Z,102037.97
2022-08-10T03:43:23.838Z,102036.63
2022-08-10T03:45:56.466Z,102022.50
2022-08-10T03:48:44.820Z,102004.75
2022-08-10T03:51:13.635Z,102030.25
2022-08-10T03:54:05.459Z,102022.84
2022-08-10T03:56:31.993Z,102042.22
2022-08-10T03:59:00.159Z,102014.81
2022-08-10T04:02:46.665Z,102032.50
2022-08-10T04:04:17.819Z,102021.03
2022-08-10T04:06:51.420Z,102045.38
2022-08-10T04:09:22.633Z,102048.75
2022-08-10T04:11:49.316Z,102048.75
2022-08-10T04:14:44.977Z,102034.94
2022-08-10T04:17:02.806Z,102049.47
2022-08-10T04:19:34.422Z,102042.78
2022-08-10T04:22:08.940Z,102045.09
2022-08-10T04:24:38.174Z,102037.75
2022-08-10T04:27:05.439Z,102034.44
2022-08-10T04:29:32.834Z,102043.63
2022-08-10T04:32:01.548Z,102036.41
2022-08-10T04:34:31.961Z,102043.22
2022-08-10T04:37:08.817Z,102042.59
2022-08-10T04:39:36.296Z,102040.63
2022-08-10T04:42:03.741Z,102023.16
2022-08-10T04:44:30.603Z,102028.91
2022-08-10T04:46:58.472Z,102019.78
2022-08-10T04:49:55.550Z,102025.50
2022-08-10T04:52:13.420Z,102019.09
2022-08-10T04:54:40.180Z,102029.59
2022-08-10T04:57:09.225Z,102014.34
2022-08-10T04:59:36.276Z,102043.44
2022-08-10T05:02:30.357Z,102016.91
2022-08-10T05:04:49.968Z,102011.13
2022-08-10T05:07:18.487Z,102005.81
2022-08-10T05:10:03.788Z,102039.13
2022-08-10T05:12:38.676Z,102032.47
2022-08-10T05:15:07.679Z,102032.59
2022-08-10T05:17:35.834Z,102047.63
2022-08-10T05:20:06.873Z,102038.56
2022-08-10T05:22:46.342Z,102049.94
2022-08-10T05:25:18.274Z,102044.28
2022-08-10T05:27:46.458Z,102037.84
2022-08-10T05:30:19.733Z,102018.66
2022-08-10T05:32:55.422Z,102025.59
2022-08-10T05:35:27.484Z,102014.50
2022-08-10T05:38:09.034Z,102032.91
2022-08-10T05:40:46.260Z,102049.72
2022-08-10T05:43:15.002Z,102035.03
2022-08-10T05:46:19.851Z,102016.03
2022-08-10T05:48:57.401Z,102011.75
2022-08-10T05:51:20.432Z,102040.09
2022-08-10T05:54:01.984Z,102035.44
2022-08-10T05:56:54.727Z,102028.41
2022-08-10T06:00:34.428Z,102030.34
2022-08-10T06:02:31.817Z,102018.22
2022-08-10T06:04:57.301Z,102022.94
2022-08-10T06:07:27.505Z,102025.09
2022-08-10T06:09:59.661Z,102009.78
2022-08-10T06:12:30.973Z,102010.06
2022-08-10T06:15:05.205Z,102009.50
2022-08-10T06:17:33.321Z,102015.03
2022-08-10T06:20:01.607Z,102001.41
2022-08-10T06:22:32.533Z,102022.19
2022-08-10T06:25:37.757Z,102026.09
2022-08-10T06:27:49.694Z,102009.13
2022-08-10T06:30:19.888Z,102005.53
2022-08-10T06:32:51.551Z,101984.22
2022-08-10T06:35:23.248Z,101963.91
2022-08-10T06:37:54.525Z,101988.66
2022-08-10T06:40:22.744Z,101943.63
2022-08-10T06:42:53.805Z,101990.16
2022-08-10T06:45:23.433Z,101997.63
2022-08-10T06:48:02.923Z,101972.56
2022-08-10T06:50:56.163Z,101992.06
2022-08-10T06:53:52.111Z,102002.75
2022-08-10T06:56:37.868Z,101994.34
2022-08-10T06:59:26.138Z,102002.53
2022-08-10T07:02:05.520Z,101996.03
2022-08-10T07:04:51.592Z,102000.88
2022-08-10T07:07:20.763Z,101978.94
2022-08-10T07:09:49.419Z,101969.50
2022-08-10T07:12:17.448Z,101960.91
2022-08-10T07:14:46.418Z,101984.28
2022-08-10T07:17:18.841Z,101965.56
2022-08-10T07:19:57.874Z,101987.88
2022-08-10T07:23:27.373Z,101963.69
2022-08-10T07:25:21.300Z,101927.44
2022-08-10T07:27:59.145Z,101961.28
2022-08-10T07:30:36.899Z,101969.81
2022-08-10T07:33:05.768Z,101947.34
2022-08-10T07:35:42.548Z,101950.47
2022-08-10T07:38:22.065Z,101925.50
2022-08-10T07:40:51.860Z,101916.44
2022-08-10T07:43:22.133Z,101939.91
2022-08-10T07:45:53.993Z,101941.81
2022-08-10T07:48:29.624Z,101932.34
2022-08-10T07:51:00.299Z,101970.81
2022-08-10T07:53:38.634Z,101908.91
2022-08-10T07:56:20.840Z,101897.78
2022-08-10T07:59:06.172Z,101919.50
2022-08-10T08:01:35.759Z,101944.03
2022-08-10T08:04:05.916Z,101932.13
2022-08-10T08:06:40.338Z,101916.31
2022-08-10T08:09:07.463Z,101932.69
2022-08-10T08:11:36.714Z,101862.09
2022-08-10T08:14:08.385Z,101928.31
2022-08-10T08:16:40.682Z,101937.91
2022-08-10T08:24:04.651Z,101938.53
2022-08-10T08:24:47.012Z,101945.44
2022-08-10T08:27:16.990Z,101915.47
2022-08-10T08:29:47.147Z,101912.19
2022-08-10T08:32:18.383Z,101936.56
2022-08-10T08:34:47.636Z,101921.47
2022-08-10T08:37:18.842Z,101938.75
2022-08-10T08:40:12.196Z,101892.31
2022-08-10T08:42:57.194Z,101929.44
2022-08-10T08:45:35.851Z,101938.75
2022-08-10T08:48:11.599Z,101934.84
2022-08-10T08:50:57.691Z,101935.25
2022-08-10T08:54:01.866Z,101927.06
2022-08-10T08:57:08.422Z,101917.56
2022-08-10T09:00:13.568Z,101867.09
2022-08-10T09:03:07.779Z,101904.13
2022-08-10T09:06:02.548Z,101875.47
2022-08-10T09:09:11.768Z,101912.63
2022-08-10T09:11:59.973Z,101918.72
2022-08-10T09:14:38.746Z,101902.72
2022-08-10T09:17:25.338Z,101913.97
2022-08-10T09:20:16.220Z,101917.97
2022-08-10T09:23:08.240Z,101915.25
2022-08-10T09:25:38.169Z,101900.97
2022-08-10T09:28:08.098Z,101872.25
2022-08-10T09:30:52.380Z,101902.25
2022-08-10T09:36:23.508Z,101904.97
2022-08-10T09:36:56.379Z,101886.50
2022-08-10T09:40:58.321Z,101868.56
2022-08-10T09:42:21.199Z,101883.16
2022-08-10T09:44:58.863Z,101825.53
2022-08-10T09:48:00.745Z,101845.34
2022-08-10T09:54:07.730Z,101877.19
2022-08-10T10:00:13.009Z,101851.56
2022-08-10T10:03:13.551Z,101865.59
2022-08-10T10:06:12.578Z,101866.41
2022-08-10T10:09:36.593Z,101859.31
2022-08-10T10:12:16.776Z,101827.75
2022-08-10T10:15:25.079Z,101807.38
2022-08-10T10:18:07.677Z,101850.00
2022-08-10T10:20:56.208Z,101855.44
2022-08-10T10:23:40.878Z,101810.78
2022-08-10T10:26:22.709Z,101855.53
2022-08-10T10:29:30.894Z,101851.94
2022-08-10T10:32:13.226Z,101845.88
2022-08-10T10:35:09.486Z,101835.13
2022-08-10T10:38:01.887Z,101789.72
2022-08-10T10:40:27.346Z,101783.78
2022-08-10T10:43:31.452Z,101827.28
2022-08-10T10:46:33.712Z,101822.41
2022-08-10T10:49:22.270Z,101784.59
2022-08-10T10:52:04.988Z,101778.25
2022-08-10T10:54:41.092Z,101812.69
2022-08-10T10:57:58.199Z,101786.75
2022-08-10T11:00:13.445Z,101807.78
2022-08-10T11:03:30.902Z,101795.78
2022-08-10T11:06:39.817Z,101770.31
2022-08-10T11:10:04.569Z,101781.91
2022-08-10T11:12:19.630Z,101763.59
2022-08-10T11:15:05.194Z,101800.91
2022-08-10T11:17:48.976Z,101811.25
2022-08-10T11:20:22.540Z,101810.00
2022-08-10T11:23:40.367Z,101807.34
2022-08-10T11:26:14.021Z,101799.28
2022-08-10T11:28:47.056Z,101801.00
2022-08-10T11:31:25.471Z,101751.31
2022-08-10T11:34:47.361Z,101790.38
2022-08-10T11:36:57.148Z,101789.28
2022-08-10T11:39:49.694Z,101796.00
2022-08-10T11:42:36.493Z,101787.59
2022-08-10T11:45:14.941Z,101784.72
2022-08-10T11:47:41.528Z,101800.03
2022-08-10T11:50:11.205Z,101787.09
2022-08-10T11:52:55.422Z,101778.88
2022-08-10T11:55:32.934Z,101770.44
2022-08-10T11:58:45.108Z,101782.59
2022-08-10T12:01:15.750Z,101787.34
2022-08-10T12:03:44.829Z,101760.38
2022-08-10T12:06:17.249Z,101782.84
2022-08-10T12:10:05.135Z,101770.91
2022-08-10T12:11:40.642Z,101768.38
2022-08-10T12:14:22.285Z,101779.53
2022-08-10T12:16:55.562Z,101785.25
2022-08-10T12:19:31.336Z,101800.56
2022-08-10T12:22:23.263Z,101789.78
2022-08-10T12:24:57.078Z,101800.31
2022-08-10T12:27:52.539Z,101789.63
2022-08-10T12:30:26.670Z,101769.50
2022-08-10T12:33:07.982Z,101775.28
2022-08-10T12:35:37.787Z,101774.75
2022-08-10T12:38:15.692Z,101763.06
2022-08-10T12:40:50.146Z,101769.69
2022-08-10T12:44:04.324Z,101780.09
2022-08-10T12:46:20.005Z,101775.03
2022-08-10T12:49:17.747Z,101775.28
2022-08-10T12:51:58.660Z,101772.25
2022-08-10T12:54:32.306Z,101759.63
2022-08-10T12:57:10.286Z,101759.09
2022-08-10T12:59:50.097Z,101717.16
2022-08-10T13:02:24.446Z,101741.47
2022-08-10T13:04:53.585Z,101750.88
2022-08-10T13:08:25.964Z,101751.50
2022-08-10T13:10:18.267Z,101749.03
2022-08-10T13:12:48.969Z,101759.13
2022-08-10T13:15:49.839Z,101743.22
2022-08-10T13:18:25.361Z,101718.53
2022-08-10T13:20:54.967Z,101738.31
2022-08-10T13:23:27.041Z,101744.63
2022-08-10T13:25:56.944Z,101708.19
2022-08-10T13:28:39.898Z,101721.34
2022-08-10T13:31:11.363Z,101705.22
2022-08-10T13:34:39.954Z,101696.59
2022-08-10T13:36:38.613Z,101729.50
2022-08-10T13:39:08.546Z,101689.97
2022-08-10T13:41:41.134Z,101707.09
2022-08-10T13:44:17.516Z,101707.75
2022-08-10T13:46:51.751Z,101691.50
2022-08-10T13:49:21.001Z,101683.22
2022-08-10T13:51:54.093Z,101656.72
2022-08-10T13:54:27.779Z,101691.53
2022-08-10T13:56:58.148Z,101692.38
2022-08-10T14:00:34.359Z,101645.34
2022-08-10T14:02:25.182Z,101654.06
2022-08-10T14:04:54.571Z,101651.66
2022-08-10T14:07:24.063Z,101643.09
2022-08-10T14:09:53.282Z,101660.19
2022-08-10T14:12:32.191Z,101657.06
2022-08-10T14:15:03.651Z,101628.81
2022-08-10T14:17:32.406Z,101649.44
2022-08-10T14:20:02.433Z,101646.56
2022-08-10T14:22:33.930Z,101660.25
2022-08-10T14:25:09.965Z,101652.19
2022-08-10T14:28:03.072Z,101640.75
2022-08-10T14:30:31.380Z,101640.31
2022-08-10T14:33:04.264Z,101657.97
2022-08-10T14:36:19.562Z,101658.84
2022-08-10T14:38:31.817Z,101624.00
2022-08-10T14:41:02.075Z,101634.50
2022-08-10T14:43:35.418Z,101643.13
2022-08-10T14:46:11.518Z,101626.63
2022-08-10T14:48:47.623Z,101635.72
2022-08-10T14:51:18.062Z,101651.47
2022-08-10T14:53:54.161Z,101609.72
2022-08-10T14:56:33.288Z,101641.94
2022-08-10T14:59:07.619Z,101615.63
2022-08-10T15:02:00.372Z,101652.09
2022-08-10T15:04:28.546Z,101658.13
2022-08-10T15:07:01.146Z,101651.06
2022-08-10T15:09:59.510Z,101634.78
2022-08-10T15:12:27.189Z,101604.94
2022-08-10T15:14:58.134Z,101630.38
2022-08-10T15:17:36.885Z,101654.28
2022-08-10T15:20:20.236Z,101621.44
2022-08-10T15:22:56.743Z,101638.94
2022-08-10T15:25:26.349Z,101603.00
2022-08-10T15:28:05.228Z,101623.78
2022-08-10T15:30:43.057Z,101599.84
2022-08-10T15:33:57.475Z,101648.22
2022-08-10T15:37:01.997Z,101627.31
2022-08-10T15:40:24.575Z,101578.69
2022-08-10T15:43:20.869Z,101652.56
2022-08-10T15:45:59.279Z,101612.75
2022-08-10T15:48:30.592Z,101626.28
2022-08-10T15:51:05.762Z,101611.69
2022-08-10T15:53:48.971Z,101649.47
2022-08-10T15:56:34.534Z,101652.13
2022-08-10T15:59:19.603Z,101660.81
2022-08-10T16:02:14.811Z,101657.59
2022-08-10T16:04:57.948Z,101613.78
2022-08-10T16:07:45.295Z,101615.94
2022-08-10T16:10:26.382Z,101628.69
2022-08-10T16:13:01.513Z,101642.38
2022-08-10T16:15:31.307Z,101640.78
2022-08-10T16:18:04.477Z,101628.94
2022-08-10T16:20:48.031Z,101636.38
2022-08-10T16:23:35.788Z,101642.91
2022-08-10T16:26:15.227Z,101631.66
2022-08-10T16:28:49.509Z,101614.94
2022-08-10T16:31:25.674Z,101585.00
2022-08-10T16:33:55.492Z,101619.66
2022-08-10T16:36:32.134Z,101643.56
2022-08-10T16:38:59.762Z,101624.28
2022-08-10T16:42:03.306Z,101620.00
2022-08-10T16:44:19.911Z,101635.69
2022-08-10T16:46:48.130Z,101643.28
2022-08-10T16:49:18.079Z,101646.47
2022-08-10T16:51:49.713Z,101669.97
2022-08-10T16:54:26.200Z,101641.84
2022-08-10T16:56:59.370Z,101638.25
2022-08-10T16:59:30.943Z,101665.06
2022-08-10T17:02:00.508Z,101623.16
2022-08-10T17:04:29.157Z,101642.91
2022-08-10T17:07:02.996Z,101623.47
2022-08-10T17:09:33.175Z,101628.03
2022-08-10T17:12:06.141Z,101631.38
2022-08-10T17:14:32.890Z,101660.50
2022-08-10T17:17:05.599Z,101630.66
2022-08-10T17:19:39.886Z,101648.19
2022-08-10T17:22:26.775Z,101605.13
2022-08-10T17:25:00.397Z,101611.94
2022-08-10T17:28:32.708Z,101631.13
2022-08-10T17:30:34.089Z,101645.91
2022-08-10T17:33:16.771Z,101592.06
2022-08-10T17:35:48.727Z,101656.66
2022-08-10T17:38:21.200Z,101649.84
2022-08-10T17:40:57.845Z,101639.09
2022-08-10T17:44:00.696Z,101657.63
2022-08-10T17:46:14.710Z,101610.81
2022-08-10T17:48:43.375Z,101602.63
2022-08-10T17:51:14.055Z,101606.91
2022-08-10T17:53:48.451Z,101610.22
2022-08-10T17:56:23.744Z,101651.81
2022-08-10T17:58:55.085Z,101651.56
2022-08-10T18:01:40.764Z,101646.41
2022-08-10T18:04:19.413Z,101654.41
2022-08-10T18:06:56.681Z,101652.13
2022-08-10T18:09:34.605Z,101624.91
2022-08-10T18:12:10.156Z,101636.44
2022-08-10T18:14:38.775Z,101656.09
2022-08-10T18:17:15.175Z,101631.19
2022-08-10T18:19:46.246Z,101625.38
2022-08-10T18:22:14.185Z,101641.69
2022-08-10T18:24:42.684Z,101652.44
2022-08-10T18:27:12.401Z,101663.56
2022-08-10T18:29:42.589Z,101654.72
2022-08-10T18:32:11.374Z,101678.75
2022-08-10T18:34:41.152Z,101643.06
2022-08-10T18:37:19.847Z,101639.91
2022-08-10T18:39:49.126Z,101665.56
2022-08-10T18:42:21.547Z,101676.69
2022-08-10T18:45:04.978Z,101628.19
2022-08-10T18:47:35.289Z,101674.94
2022-08-10T18:50:12.480Z,101679.16
2022-08-10T18:52:43.128Z,101686.63
2022-08-10T18:55:24.553Z,101667.28
2022-08-10T18:58:01.006Z,101697.97
2022-08-10T19:00:53.917Z,101683.38
2022-08-10T19:03:39.619Z,101710.13
2022-08-10T19:06:45.550Z,101717.44
2022-08-10T19:09:47.656Z,101706.84
2022-08-10T19:12:36.989Z,101715.53
2022-08-10T19:15:16.479Z,101697.16
2022-08-10T19:18:14.097Z,101711.84
2022-08-10T19:20:59.580Z,101716.50
2022-08-10T19:23:34.804Z,101718.94
2022-08-10T19:26:37.980Z,101721.03
2022-08-10T19:29:10.080Z,101706.97
2022-08-10T19:31:54.591Z,101706.84
2022-08-10T19:34:38.982Z,101718.03
2022-08-10T19:37:37.310Z,101717.53
2022-08-10T19:40:16.557Z,101730.53
2022-08-10T19:43:09.213Z,101731.63
2022-08-10T19:46:01.275Z,101711.69
2022-08-10T19:48:43.335Z,101734.69
2022-08-10T19:51:30.148Z,101715.25
2022-08-10T19:54:03.802Z,101738.34
2022-08-10T19:56:40.109Z,101735.94
2022-08-10T20:00:16.935Z,101741.19
2022-08-10T20:02:26.226Z,101744.06
2022-08-10T20:05:07.082Z,101707.53
2022-08-10T20:07:58.582Z,101752.44
2022-08-10T20:10:42.728Z,101745.06
2022-08-10T20:13:25.975Z,101764.03
2022-08-10T20:16:02.931Z,101762.19
2022-08-10T20:18:42.542Z,101765.50
2022-08-10T20:21:16.582Z,101762.56
2022-08-10T20:23:56.455Z,101748.59
2022-08-10T20:26:41.088Z,101746.78
2022-08-10T20:29:16.390Z,101763.06
2022-08-10T20:32:24.600Z,101757.22
2022-08-10T20:34:58.338Z,101761.81
2022-08-10T20:37:43.463Z,101768.66
2022-08-10T20:40:53.883Z,101775.56
2022-08-10T20:43:32.759Z,101755.41
2022-08-10T20:46:28.098Z,101771.13
2022-08-10T20:49:22.692Z,101786.25
2022-08-10T20:51:58.990Z,101780.81
2022-08-10T20:54:35.287Z,101783.16
2022-08-10T20:57:55.382Z,101792.72
2022-08-10T21:00:13.728Z,101794.56
2022-08-10T21:03:20.878Z,101791.44
2022-08-10T21:06:03.292Z,101793.59
2022-08-10T21:08:46.769Z,101791.09
2022-08-10T21:11:32.143Z,101790.78
2022-08-10T21:14:20.770Z,101792.81
2022-08-10T21:16:50.279Z,101796.34
2022-08-10T21:19:56.284Z,101791.38
2022-08-10T21:22:31.719Z,101771.38
2022-08-10T21:25:29.741Z,101785.53
2022-08-10T21:27:59.438Z,101795.25
2022-08-10T21:30:47.084Z,101788.16
2022-08-10T21:33:45.161Z,101807.44
2022-08-10T21:36:27.230Z,101802.44
2022-08-10T21:39:16.129Z,101774.97
2022-08-10T21:42:43.423Z,101809.47
2022-08-10T21:45:59.518Z,101809.63
2022-08-10T21:48:57.709Z,101800.97
2022-08-10T21:52:05.136Z,101785.19
2022-08-10T21:55:10.437Z,101796.69
2022-08-10T21:58:15.428Z,101791.47
2022-08-10T22:01:06.812Z,101772.28
2022-08-10T22:03:59.719Z,101781.06
2022-08-10T22:06:52.508Z,101780.94
2022-08-10T22:10:00.176Z,101771.88
2022-08-10T22:12:52.580Z,101775.50
2022-08-10T22:16:03.834Z,101741.06
2022-08-10T22:18:58.821Z,101779.16
2022-08-10T22:21:59.433Z,101785.13
2022-08-10T22:25:19.122Z,101784.06
2022-08-10T22:28:12.502Z,101782.88
2022-08-10T22:31:30.188Z,101777.75
2022-08-10T22:34:59.656Z,101776.91
2022-08-10T22:37:53.849Z,101789.47
2022-08-10T22:40:42.179Z,101787.22
2022-08-10T22:43:38.249Z,101776.13
2022-08-10T22:46:42.250Z,101776.34
2022-08-10T22:49:09.559Z,101774.72
2022-08-10T22:51:54.630Z,101783.38
2022-08-10T22:54:42.221Z,101794.50
2022-08-10T22:57:34.321Z,101797.31
2022-08-10T23:00:31.451Z,101793.00
2022-08-10T23:03:22.444Z,101798.09
2022-08-10T23:06:04.357Z,101789.66
2022-08-10T23:08:40.965Z,101795.69
2022-08-10T23:11:12.711Z,101815.22
2022-08-10T23:13:43.799Z,101790.75
2022-08-10T23:16:36.232Z,101802.94
2022-08-10T23:19:24.806Z,101799.72
2022-08-10T23:22:15.860Z,101809.13
2022-08-10T23:25:04.416Z,101771.25
2022-08-10T23:27:38.628Z,101778.38
2022-08-10T23:30:16.973Z,101785.09
2022-08-10T23:32:48.021Z,101767.63
2022-08-10T23:36:05.514Z,101756.28
2022-08-10T23:38:09.409Z,101789.44
2022-08-10T23:40:36.912Z,101788.44
2022-08-10T23:43:05.575Z,101782.75
2022-08-10T23:45:53.179Z,101764.78
2022-08-10T23:48:23.419Z,101779.59
2022-08-10T23:50:59.595Z,101788.63
2022-08-10T23:53:30.887Z,101778.09
2022-08-10T23:56:05.227Z,101782.84
2022-08-10T23:58:36.056Z,101790.44
